sensor_id;sensor_type;location;lat;lon;timestamp;P1;durP1;ratioP1;P2;durP2;ratioP2
62616;SDS011;48692;51.190;6.808;2022-07-22T00:01:25;11.27;;;3.50;;
62616;SDS011;48692;51.190;6.808;2022-07-22T00:03:50;11.52;;;3.60;;
62616;SDS011;48692;51.190;6.808;2022-07-22T00:06:16;10.38;;;3.53;;
62616;SDS011;48692;51.190;6.808;2022-07-22T00:08:41;9.75;;;3.40;;
62616;SDS011;48692;51.190;6.808;2022-07-22T00:11:07;8.45;;;3.20;;
62616;SDS011;48692;51.190;6.808;2022-07-22T00:13:32;10.65;;;3.25;;
62616;SDS011;48692;51.190;6.808;2022-07-22T00:15:58;9.23;;;3.42;;
62616;SDS011;48692;51.190;6.808;2022-07-22T00:18:24;8.25;;;3.13;;
62616;SDS011;48692;51.190;6.808;2022-07-22T00:20:49;7.15;;;2.90;;
62616;SDS011;48692;51.190;6.808;2022-07-22T00:23:15;9.27;;;3.20;;
62616;SDS011;48692;51.190;6.808;2022-07-22T00:25:41;5.00;;;2.67;;
62616;SDS011;48692;51.190;6.808;2022-07-22T00:28:06;7.70;;;3.03;;
62616;SDS011;48692;51.190;6.808;2022-07-22T00:30:32;8.18;;;3.10;;
62616;SDS011;48692;51.190;6.808;2022-07-22T00:32:58;10.57;;;3.35;;
62616;SDS011;48692;51.190;6.808;2022-07-22T00:35:23;7.95;;;3.15;;
62616;SDS011;48692;51.190;6.808;2022-07-22T00:37:49;9.45;;;2.92;;
62616;SDS011;48692;51.190;6.808;2022-07-22T00:40:15;11.20;;;3.08;;
62616;SDS011;48692;51.190;6.808;2022-07-22T00:42:40;7.45;;;3.33;;
62616;SDS011;48692;51.190;6.808;2022-07-22T00:45:06;7.13;;;3.00;;
62616;SDS011;48692;51.190;6.808;2022-07-22T00:47:33;11.95;;;3.45;;
62616;SDS011;48692;51.190;6.808;2022-07-22T00:49:59;10.63;;;3.40;;
62616;SDS011;48692;51.190;6.808;2022-07-22T00:52:25;9.07;;;3.10;;
62616;SDS011;48692;51.190;6.808;2022-07-22T00:54:51;9.07;;;3.55;;
62616;SDS011;48692;51.190;6.808;2022-07-22T00:57:17;15.90;;;5.25;;
62616;SDS011;48692;51.190;6.808;2022-07-22T00:59:44;9.13;;;3.60;;
62616;SDS011;48692;51.190;6.808;2022-07-22T01:02:09;9.93;;;3.88;;
62616;SDS011;48692;51.190;6.808;2022-07-22T01:04:35;9.93;;;3.92;;
62616;SDS011;48692;51.190;6.808;2022-07-22T01:07:01;8.50;;;3.70;;
62616;SDS011;48692;51.190;6.808;2022-07-22T01:09:27;8.70;;;3.83;;
62616;SDS011;48692;51.190;6.808;2022-07-22T01:11:53;10.02;;;3.40;;
62616;SDS011;48692;51.190;6.808;2022-07-22T01:14:18;10.85;;;4.53;;
62616;SDS011;48692;51.190;6.808;2022-07-22T01:16:44;10.95;;;4.85;;
62616;SDS011;48692;51.190;6.808;2022-07-22T01:19:09;9.10;;;3.90;;
62616;SDS011;48692;51.190;6.808;2022-07-22T01:21:35;10.30;;;3.55;;
62616;SDS011;48692;51.190;6.808;2022-07-22T01:24:01;20.90;;;4.10;;
62616;SDS011;48692;51.190;6.808;2022-07-22T01:26:31;7.82;;;3.83;;
62616;SDS011;48692;51.190;6.808;2022-07-22T01:28:58;7.82;;;4.43;;
62616;SDS011;48692;51.190;6.808;2022-07-22T01:31:24;9.27;;;3.92;;
62616;SDS011;48692;51.190;6.808;2022-07-22T01:33:50;12.77;;;4.32;;
62616;SDS011;48692;51.190;6.808;2022-07-22T01:36:16;10.68;;;4.05;;
62616;SDS011;48692;51.190;6.808;2022-07-22T01:38:41;10.98;;;4.28;;
62616;SDS011;48692;51.190;6.808;2022-07-22T01:41:07;12.40;;;4.40;;
62616;SDS011;48692;51.190;6.808;2022-07-22T01:43:33;8.68;;;3.75;;
62616;SDS011;48692;51.190;6.808;2022-07-22T01:45:59;10.98;;;4.70;;
62616;SDS011;48692;51.190;6.808;2022-07-22T01:48:24;9.82;;;4.70;;
62616;SDS011;48692;51.190;6.808;2022-07-22T01:50:50;9.13;;;4.65;;
62616;SDS011;48692;51.190;6.808;2022-07-22T01:53:16;10.52;;;4.10;;
62616;SDS011;48692;51.190;6.808;2022-07-22T01:55:41;8.95;;;4.50;;
62616;SDS011;48692;51.190;6.808;2022-07-22T01:58:07;8.25;;;4.35;;
62616;SDS011;48692;51.190;6.808;2022-07-22T02:00:33;10.90;;;4.60;;
62616;SDS011;48692;51.190;6.808;2022-07-22T02:03:00;8.85;;;4.03;;
62616;SDS011;48692;51.190;6.808;2022-07-22T02:05:26;12.43;;;4.40;;
62616;SDS011;48692;51.190;6.808;2022-07-22T02:07:51;12.02;;;4.55;;
62616;SDS011;48692;51.190;6.808;2022-07-22T02:10:17;9.45;;;4.22;;
62616;SDS011;48692;51.190;6.808;2022-07-22T02:12:43;7.70;;;3.78;;
62616;SDS011;48692;51.190;6.808;2022-07-22T02:15:09;9.55;;;4.93;;
62616;SDS011;48692;51.190;6.808;2022-07-22T02:17:36;12.15;;;4.57;;
62616;SDS011;48692;51.190;6.808;2022-07-22T02:20:02;9.93;;;4.00;;
62616;SDS011;48692;51.190;6.808;2022-07-22T02:22:29;10.68;;;4.10;;
62616;SDS011;48692;51.190;6.808;2022-07-22T02:24:54;6.95;;;3.95;;
62616;SDS011;48692;51.190;6.808;2022-07-22T02:27:19;9.45;;;4.40;;
62616;SDS011;48692;51.190;6.808;2022-07-22T02:29:45;9.10;;;4.07;;
62616;SDS011;48692;51.190;6.808;2022-07-22T02:32:10;6.70;;;4.18;;
62616;SDS011;48692;51.190;6.808;2022-07-22T02:34:36;9.77;;;4.47;;
62616;SDS011;48692;51.190;6.808;2022-07-22T02:37:01;8.85;;;4.63;;
62616;SDS011;48692;51.190;6.808;2022-07-22T02:39:27;6.45;;;3.75;;
62616;SDS011;48692;51.190;6.808;2022-07-22T02:41:52;7.25;;;4.03;;
62616;SDS011;48692;51.190;6.808;2022-07-22T02:44:18;12.35;;;4.15;;
62616;SDS011;48692;51.190;6.808;2022-07-22T02:46:43;8.68;;;3.97;;
62616;SDS011;48692;51.190;6.808;2022-07-22T02:49:09;7.13;;;4.13;;
62616;SDS011;48692;51.190;6.808;2022-07-22T02:51:34;6.00;;;3.70;;
62616;SDS011;48692;51.190;6.808;2022-07-22T02:54:00;7.38;;;3.38;;
62616;SDS011;48692;51.190;6.808;2022-07-22T02:56:25;11.45;;;3.15;;
62616;SDS011;48692;51.190;6.808;2022-07-22T02:58:51;7.70;;;2.85;;
62616;SDS011;48692;51.190;6.808;2022-07-22T03:01:18;5.32;;;2.97;;
62616;SDS011;48692;51.190;6.808;2022-07-22T03:03:44;7.30;;;3.38;;
62616;SDS011;48692;51.190;6.808;2022-07-22T03:06:10;6.35;;;3.13;;
62616;SDS011;48692;51.190;6.808;2022-07-22T03:08:36;9.65;;;3.35;;
62616;SDS011;48692;51.190;6.808;2022-07-22T03:11:03;8.35;;;3.17;;
62616;SDS011;48692;51.190;6.808;2022-07-22T03:13:29;5.68;;;3.20;;
62616;SDS011;48692;51.190;6.808;2022-07-22T03:15:54;8.07;;;3.67;;
62616;SDS011;48692;51.190;6.808;2022-07-22T03:18:20;7.03;;;3.63;;
62616;SDS011;48692;51.190;6.808;2022-07-22T03:20:45;7.18;;;3.10;;
62616;SDS011;48692;51.190;6.808;2022-07-22T03:23:11;7.82;;;3.10;;
62616;SDS011;48692;51.190;6.808;2022-07-22T03:25:36;9.00;;;4.00;;
62616;SDS011;48692;51.190;6.808;2022-07-22T03:28:03;7.45;;;3.10;;
62616;SDS011;48692;51.190;6.808;2022-07-22T03:30:30;12.70;;;4.63;;
62616;SDS011;48692;51.190;6.808;2022-07-22T03:32:55;8.40;;;3.42;;
62616;SDS011;48692;51.190;6.808;2022-07-22T03:35:21;5.85;;;3.60;;
62616;SDS011;48692;51.190;6.808;2022-07-22T03:37:46;5.95;;;3.17;;
62616;SDS011;48692;51.190;6.808;2022-07-22T03:40:11;11.63;;;3.45;;
62616;SDS011;48692;51.190;6.808;2022-07-22T03:42:37;10.70;;;3.17;;
62616;SDS011;48692;51.190;6.808;2022-07-22T03:45:03;6.10;;;3.28;;
62616;SDS011;48692;51.190;6.808;2022-07-22T03:47:28;6.97;;;3.80;;
62616;SDS011;48692;51.190;6.808;2022-07-22T03:49:54;10.30;;;3.70;;
62616;SDS011;48692;51.190;6.808;2022-07-22T03:52:19;9.55;;;3.33;;
62616;SDS011;48692;51.190;6.808;2022-07-22T03:54:45;7.78;;;3.20;;
62616;SDS011;48692;51.190;6.808;2022-07-22T03:57:10;6.07;;;3.42;;
62616;SDS011;48692;51.190;6.808;2022-07-22T03:59:36;6.72;;;2.95;;
62616;SDS011;48692;51.190;6.808;2022-07-22T04:02:02;7.22;;;3.42;;
62616;SDS011;48692;51.190;6.808;2022-07-22T04:04:28;9.82;;;3.85;;
62616;SDS011;48692;51.190;6.808;2022-07-22T04:06:54;8.88;;;4.00;;
62616;SDS011;48692;51.190;6.808;2022-07-22T04:09:19;7.05;;;3.90;;
62616;SDS011;48692;51.190;6.808;2022-07-22T04:11:46;8.65;;;3.97;;
62616;SDS011;48692;51.190;6.808;2022-07-22T04:14:12;7.18;;;3.60;;
62616;SDS011;48692;51.190;6.808;2022-07-22T04:16:37;8.73;;;4.00;;
62616;SDS011;48692;51.190;6.808;2022-07-22T04:19:03;6.65;;;4.65;;
62616;SDS011;48692;51.190;6.808;2022-07-22T04:21:29;9.70;;;6.50;;
62616;SDS011;48692;51.190;6.808;2022-07-22T04:23:55;13.13;;;7.32;;
62616;SDS011;48692;51.190;6.808;2022-07-22T04:26:20;13.35;;;8.45;;
62616;SDS011;48692;51.190;6.808;2022-07-22T04:28:46;14.93;;;8.95;;
62616;SDS011;48692;51.190;6.808;2022-07-22T04:31:12;12.30;;;8.63;;
62616;SDS011;48692;51.190;6.808;2022-07-22T04:33:37;13.60;;;9.40;;
62616;SDS011;48692;51.190;6.808;2022-07-22T04:36:03;14.00;;;9.27;;
62616;SDS011;48692;51.190;6.808;2022-07-22T04:38:29;14.35;;;8.77;;
62616;SDS011;48692;51.190;6.808;2022-07-22T04:40:54;15.40;;;8.93;;
62616;SDS011;48692;51.190;6.808;2022-07-22T04:43:20;14.43;;;7.40;;
62616;SDS011;48692;51.190;6.808;2022-07-22T04:45:45;10.82;;;6.28;;
62616;SDS011;48692;51.190;6.808;2022-07-22T04:48:11;10.10;;;5.90;;
62616;SDS011;48692;51.190;6.808;2022-07-22T04:50:36;9.50;;;4.70;;
62616;SDS011;48692;51.190;6.808;2022-07-22T04:53:02;8.27;;;4.50;;
62616;SDS011;48692;51.190;6.808;2022-07-22T04:55:28;5.90;;;3.92;;
62616;SDS011;48692;51.190;6.808;2022-07-22T04:57:54;8.82;;;3.28;;
62616;SDS011;48692;51.190;6.808;2022-07-22T05:00:19;5.97;;;3.10;;
62616;SDS011;48692;51.190;6.808;2022-07-22T05:02:45;7.45;;;2.90;;
62616;SDS011;48692;51.190;6.808;2022-07-22T05:05:10;6.43;;;2.85;;
62616;SDS011;48692;51.190;6.808;2022-07-22T05:07:36;11.00;;;3.13;;
62616;SDS011;48692;51.190;6.808;2022-07-22T05:10:01;10.63;;;2.72;;
62616;SDS011;48692;51.190;6.808;2022-07-22T05:12:28;9.90;;;3.58;;
62616;SDS011;48692;51.190;6.808;2022-07-22T05:14:54;7.22;;;2.90;;
62616;SDS011;48692;51.190;6.808;2022-07-22T05:17:19;6.43;;;2.45;;
62616;SDS011;48692;51.190;6.808;2022-07-22T05:19:44;8.80;;;2.67;;
62616;SDS011;48692;51.190;6.808;2022-07-22T05:22:10;10.43;;;2.67;;
62616;SDS011;48692;51.190;6.808;2022-07-22T05:24:35;7.15;;;2.20;;
62616;SDS011;48692;51.190;6.808;2022-07-22T05:27:01;7.13;;;2.60;;
62616;SDS011;48692;51.190;6.808;2022-07-22T05:29:27;8.52;;;2.50;;
62616;SDS011;48692;51.190;6.808;2022-07-22T05:31:52;11.20;;;2.60;;
62616;SDS011;48692;51.190;6.808;2022-07-22T05:34:18;6.32;;;2.13;;
62616;SDS011;48692;51.190;6.808;2022-07-22T05:36:43;7.32;;;2.25;;
62616;SDS011;48692;51.190;6.808;2022-07-22T05:39:09;6.22;;;2.22;;
62616;SDS011;48692;51.190;6.808;2022-07-22T05:41:34;8.82;;;2.42;;
62616;SDS011;48692;51.190;6.808;2022-07-22T05:44:00;8.70;;;2.30;;
62616;SDS011;48692;51.190;6.808;2022-07-22T05:46:25;7.38;;;2.50;;
62616;SDS011;48692;51.190;6.808;2022-07-22T05:48:51;7.03;;;2.50;;
62616;SDS011;48692;51.190;6.808;2022-07-22T05:51:16;6.70;;;1.90;;
62616;SDS011;48692;51.190;6.808;2022-07-22T05:53:42;6.80;;;2.10;;
62616;SDS011;48692;51.190;6.808;2022-07-22T05:56:09;6.72;;;2.08;;
62616;SDS011;48692;51.190;6.808;2022-07-22T05:58:36;8.07;;;2.00;;
62616;SDS011;48692;51.190;6.808;2022-07-22T06:01:06;7.35;;;2.13;;
62616;SDS011;48692;51.190;6.808;2022-07-22T06:03:32;5.88;;;1.90;;
62616;SDS011;48692;51.190;6.808;2022-07-22T06:05:58;13.10;;;2.83;;
62616;SDS011;48692;51.190;6.808;2022-07-22T06:08:26;8.45;;;2.10;;
62616;SDS011;48692;51.190;6.808;2022-07-22T06:10:52;7.40;;;2.03;;
62616;SDS011;48692;51.190;6.808;2022-07-22T06:13:18;5.35;;;1.80;;
62616;SDS011;48692;51.190;6.808;2022-07-22T06:15:43;9.05;;;2.42;;
62616;SDS011;48692;51.190;6.808;2022-07-22T06:18:09;8.77;;;2.38;;
62616;SDS011;48692;51.190;6.808;2022-07-22T06:20:35;4.68;;;2.05;;
62616;SDS011;48692;51.190;6.808;2022-07-22T06:23:00;5.18;;;1.50;;
62616;SDS011;48692;51.190;6.808;2022-07-22T06:25:26;5.93;;;2.28;;
62616;SDS011;48692;51.190;6.808;2022-07-22T06:27:51;7.60;;;2.28;;
62616;SDS011;48692;51.190;6.808;2022-07-22T06:30:17;5.07;;;1.90;;
62616;SDS011;48692;51.190;6.808;2022-07-22T06:32:42;9.32;;;2.20;;
62616;SDS011;48692;51.190;6.808;2022-07-22T06:35:09;7.10;;;2.13;;
62616;SDS011;48692;51.190;6.808;2022-07-22T06:37:34;7.07;;;1.85;;
62616;SDS011;48692;51.190;6.808;2022-07-22T06:40:00;4.35;;;1.50;;
62616;SDS011;48692;51.190;6.808;2022-07-22T06:42:25;6.93;;;1.90;;
62616;SDS011;48692;51.190;6.808;2022-07-22T06:44:51;5.72;;;1.70;;
62616;SDS011;48692;51.190;6.808;2022-07-22T06:47:17;4.00;;;1.30;;
62616;SDS011;48692;51.190;6.808;2022-07-22T06:49:42;6.53;;;1.73;;
62616;SDS011;48692;51.190;6.808;2022-07-22T06:52:07;4.88;;;1.83;;
62616;SDS011;48692;51.190;6.808;2022-07-22T06:54:33;4.32;;;1.17;;
62616;SDS011;48692;51.190;6.808;2022-07-22T06:56:58;3.83;;;1.63;;
62616;SDS011;48692;51.190;6.808;2022-07-22T06:59:24;4.80;;;1.55;;
62616;SDS011;48692;51.190;6.808;2022-07-22T07:01:50;3.63;;;1.40;;
62616;SDS011;48692;51.190;6.808;2022-07-22T07:04:16;3.75;;;1.50;;
62616;SDS011;48692;51.190;6.808;2022-07-22T07:06:43;3.20;;;1.25;;
62616;SDS011;48692;51.190;6.808;2022-07-22T07:09:09;3.30;;;1.52;;
62616;SDS011;48692;51.190;6.808;2022-07-22T07:11:34;3.08;;;1.40;;
62616;SDS011;48692;51.190;6.808;2022-07-22T07:14:00;4.65;;;1.60;;
62616;SDS011;48692;51.190;6.808;2022-07-22T07:16:25;3.17;;;1.40;;
62616;SDS011;48692;51.190;6.808;2022-07-22T07:18:51;4.55;;;1.35;;
62616;SDS011;48692;51.190;6.808;2022-07-22T07:21:16;3.65;;;1.30;;
62616;SDS011;48692;51.190;6.808;2022-07-22T07:23:42;3.83;;;1.33;;
62616;SDS011;48692;51.190;6.808;2022-07-22T07:26:07;2.97;;;1.33;;
62616;SDS011;48692;51.190;6.808;2022-07-22T07:28:34;4.65;;;1.55;;
62616;SDS011;48692;51.190;6.808;2022-07-22T07:31:00;2.28;;;1.15;;
62616;SDS011;48692;51.190;6.808;2022-07-22T07:33:26;2.28;;;1.30;;
62616;SDS011;48692;51.190;6.808;2022-07-22T07:35:51;3.33;;;1.20;;
62616;SDS011;48692;51.190;6.808;2022-07-22T07:38:17;3.60;;;1.45;;
62616;SDS011;48692;51.190;6.808;2022-07-22T07:40:43;2.05;;;1.27;;
62616;SDS011;48692;51.190;6.808;2022-07-22T07:43:08;2.40;;;1.30;;
62616;SDS011;48692;51.190;6.808;2022-07-22T07:45:34;4.63;;;1.50;;
62616;SDS011;48692;51.190;6.808;2022-07-22T07:48:00;2.75;;;1.30;;
62616;SDS011;48692;51.190;6.808;2022-07-22T07:50:27;1.33;;;1.02;;
62616;SDS011;48692;51.190;6.808;2022-07-22T07:52:52;3.30;;;1.30;;
62616;SDS011;48692;51.190;6.808;2022-07-22T07:55:18;3.30;;;1.30;;
62616;SDS011;48692;51.190;6.808;2022-07-22T07:57:44;3.35;;;1.45;;
62616;SDS011;48692;51.190;6.808;2022-07-22T08:00:13;1.92;;;1.02;;
62616;SDS011;48692;51.190;6.808;2022-07-22T08:02:41;3.17;;;1.48;;
62616;SDS011;48692;51.190;6.808;2022-07-22T08:05:07;5.22;;;1.58;;
62616;SDS011;48692;51.190;6.808;2022-07-22T08:07:34;3.03;;;1.55;;
62616;SDS011;48692;51.190;6.808;2022-07-22T08:09:59;2.92;;;1.27;;
62616;SDS011;48692;51.190;6.808;2022-07-22T08:12:26;3.38;;;1.48;;
62616;SDS011;48692;51.190;6.808;2022-07-22T08:14:51;2.30;;;1.38;;
62616;SDS011;48692;51.190;6.808;2022-07-22T08:17:17;4.35;;;1.25;;
62616;SDS011;48692;51.190;6.808;2022-07-22T08:19:43;3.38;;;1.80;;
62616;SDS011;48692;51.190;6.808;2022-07-22T08:22:08;2.47;;;1.30;;
62616;SDS011;48692;51.190;6.808;2022-07-22T08:24:33;2.90;;;1.50;;
62616;SDS011;48692;51.190;6.808;2022-07-22T08:26:59;2.42;;;1.27;;
62616;SDS011;48692;51.190;6.808;2022-07-22T08:29:24;2.03;;;1.30;;
62616;SDS011;48692;51.190;6.808;2022-07-22T08:31:50;3.25;;;1.48;;
62616;SDS011;48692;51.190;6.808;2022-07-22T08:34:16;2.88;;;1.40;;
62616;SDS011;48692;51.190;6.808;2022-07-22T08:36:41;3.53;;;1.65;;
62616;SDS011;48692;51.190;6.808;2022-07-22T08:39:07;2.17;;;1.30;;
62616;SDS011;48692;51.190;6.808;2022-07-22T08:41:33;2.38;;;1.40;;
62616;SDS011;48692;51.190;6.808;2022-07-22T08:44:03;5.45;;;1.80;;
62616;SDS011;48692;51.190;6.808;2022-07-22T08:46:29;3.65;;;1.40;;
62616;SDS011;48692;51.190;6.808;2022-07-22T08:48:55;3.83;;;1.55;;
62616;SDS011;48692;51.190;6.808;2022-07-22T08:51:21;3.78;;;1.60;;
62616;SDS011;48692;51.190;6.808;2022-07-22T08:53:47;4.28;;;1.75;;
62616;SDS011;48692;51.190;6.808;2022-07-22T08:56:12;3.75;;;1.75;;
62616;SDS011;48692;51.190;6.808;2022-07-22T08:58:39;3.78;;;1.95;;
62616;SDS011;48692;51.190;6.808;2022-07-22T09:06:14;4.45;;;1.88;;
62616;SDS011;48692;51.190;6.808;2022-07-22T09:11:31;6.20;;;1.80;;
62616;SDS011;48692;51.190;6.808;2022-07-22T09:13:57;3.22;;;2.05;;
62616;SDS011;48692;51.190;6.808;2022-07-22T09:19:30;8.02;;;1.77;;
62616;SDS011;48692;51.190;6.808;2022-07-22T09:21:58;4.50;;;2.25;;
62616;SDS011;48692;51.190;6.808;2022-07-22T09:24:30;3.50;;;1.83;;
62616;SDS011;48692;51.190;6.808;2022-07-22T09:26:59;5.88;;;2.20;;
62616;SDS011;48692;51.190;6.808;2022-07-22T09:29:24;6.45;;;2.15;;
62616;SDS011;48692;51.190;6.808;2022-07-22T09:31:50;5.18;;;2.22;;
62616;SDS011;48692;51.190;6.808;2022-07-22T09:34:25;5.82;;;2.10;;
62616;SDS011;48692;51.190;6.808;2022-07-22T09:36:57;3.35;;;2.20;;
62616;SDS011;48692;51.190;6.808;2022-07-22T09:39:28;4.78;;;2.00;;
62616;SDS011;48692;51.190;6.808;2022-07-22T09:41:59;3.65;;;2.20;;
62616;SDS011;48692;51.190;6.808;2022-07-22T09:44:27;5.45;;;2.35;;
62616;SDS011;48692;51.190;6.808;2022-07-22T09:46:53;3.45;;;2.25;;
62616;SDS011;48692;51.190;6.808;2022-07-22T09:49:37;3.65;;;2.17;;
62616;SDS011;48692;51.190;6.808;2022-07-22T09:52:05;3.40;;;2.20;;
62616;SDS011;48692;51.190;6.808;2022-07-22T09:54:31;4.28;;;2.42;;
62616;SDS011;48692;51.190;6.808;2022-07-22T09:56:57;4.68;;;2.40;;
62616;SDS011;48692;51.190;6.808;2022-07-22T09:59:24;2.92;;;1.95;;
62616;SDS011;48692;51.190;6.808;2022-07-22T10:01:51;4.28;;;2.28;;
62616;SDS011;48692;51.190;6.808;2022-07-22T10:04:23;7.28;;;2.72;;
62616;SDS011;48692;51.190;6.808;2022-07-22T10:06:55;2.42;;;2.20;;
62616;SDS011;48692;51.190;6.808;2022-07-22T10:09:23;5.90;;;2.35;;
62616;SDS011;48692;51.190;6.808;2022-07-22T10:11:49;3.88;;;2.40;;
62616;SDS011;48692;51.190;6.808;2022-07-22T10:14:17;3.63;;;2.10;;
62616;SDS011;48692;51.190;6.808;2022-07-22T10:16:43;4.00;;;2.42;;
62616;SDS011;48692;51.190;6.808;2022-07-22T10:19:09;4.97;;;2.30;;
62616;SDS011;48692;51.190;6.808;2022-07-22T10:21:36;4.05;;;2.53;;
62616;SDS011;48692;51.190;6.808;2022-07-22T10:24:20;7.07;;;2.70;;
62616;SDS011;48692;51.190;6.808;2022-07-22T10:26:50;3.08;;;2.40;;
62616;SDS011;48692;51.190;6.808;2022-07-22T10:29:24;4.15;;;2.50;;
62616;SDS011;48692;51.190;6.808;2022-07-22T10:32:11;5.15;;;2.40;;
62616;SDS011;48692;51.190;6.808;2022-07-22T10:34:42;4.13;;;2.55;;
62616;SDS011;48692;51.190;6.808;2022-07-22T10:45:26;5.03;;;2.70;;
62616;SDS011;48692;51.190;6.808;2022-07-22T10:47:57;4.55;;;2.92;;
62616;SDS011;48692;51.190;6.808;2022-07-22T10:53:15;3.63;;;2.58;;
62616;SDS011;48692;51.190;6.808;2022-07-22T11:01:02;4.57;;;2.80;;
62616;SDS011;48692;51.190;6.808;2022-07-22T11:03:31;4.95;;;3.38;;
62616;SDS011;48692;51.190;6.808;2022-07-22T11:06:12;5.53;;;3.22;;
62616;SDS011;48692;51.190;6.808;2022-07-22T11:08:46;4.35;;;2.80;;
62616;SDS011;48692;51.190;6.808;2022-07-22T11:11:15;5.45;;;3.05;;
62616;SDS011;48692;51.190;6.808;2022-07-22T11:13:42;6.03;;;3.50;;
62616;SDS011;48692;51.190;6.808;2022-07-22T11:16:21;8.65;;;4.05;;
62616;SDS011;48692;51.190;6.808;2022-07-22T11:18:51;8.27;;;4.65;;
62616;SDS011;48692;51.190;6.808;2022-07-22T11:21:27;7.68;;;4.65;;
62616;SDS011;48692;51.190;6.808;2022-07-22T11:24:00;9.40;;;5.38;;
62616;SDS011;48692;51.190;6.808;2022-07-22T11:26:42;8.50;;;5.40;;
62616;SDS011;48692;51.190;6.808;2022-07-22T11:31:48;7.40;;;4.88;;
62616;SDS011;48692;51.190;6.808;2022-07-22T11:34:15;9.90;;;5.50;;
62616;SDS011;48692;51.190;6.808;2022-07-22T11:36:42;9.35;;;5.20;;
62616;SDS011;48692;51.190;6.808;2022-07-22T11:39:11;9.93;;;5.57;;
62616;SDS011;48692;51.190;6.808;2022-07-22T11:41:42;8.68;;;5.10;;
62616;SDS011;48692;51.190;6.808;2022-07-22T11:44:08;9.57;;;5.40;;
62616;SDS011;48692;51.190;6.808;2022-07-22T11:46:34;9.52;;;5.95;;
62616;SDS011;48692;51.190;6.808;2022-07-22T11:49:02;8.20;;;6.07;;
62616;SDS011;48692;51.190;6.808;2022-07-22T11:51:29;11.93;;;6.07;;
62616;SDS011;48692;51.190;6.808;2022-07-22T11:53:56;9.25;;;6.10;;
62616;SDS011;48692;51.190;6.808;2022-07-22T11:56:23;9.93;;;7.80;;
62616;SDS011;48692;51.190;6.808;2022-07-22T11:58:50;13.63;;;6.63;;
62616;SDS011;48692;51.190;6.808;2022-07-22T12:01:22;9.18;;;6.43;;
62616;SDS011;48692;51.190;6.808;2022-07-22T12:03:54;9.82;;;6.40;;
62616;SDS011;48692;51.190;6.808;2022-07-22T12:06:23;9.23;;;6.20;;
62616;SDS011;48692;51.190;6.808;2022-07-22T12:09:05;11.68;;;5.93;;
62616;SDS011;48692;51.190;6.808;2022-07-22T12:11:36;12.05;;;6.93;;
62616;SDS011;48692;51.190;6.808;2022-07-22T12:14:06;10.93;;;6.80;;
62616;SDS011;48692;51.190;6.808;2022-07-22T12:16:40;12.40;;;6.25;;
62616;SDS011;48692;51.190;6.808;2022-07-22T12:19:10;8.55;;;6.18;;
62616;SDS011;48692;51.190;6.808;2022-07-22T12:21:49;12.07;;;6.40;;
62616;SDS011;48692;51.190;6.808;2022-07-22T12:24:44;10.10;;;6.88;;
62616;SDS011;48692;51.190;6.808;2022-07-22T12:27:22;9.20;;;6.68;;
62616;SDS011;48692;51.190;6.808;2022-07-22T12:29:48;8.93;;;6.78;;
62616;SDS011;48692;51.190;6.808;2022-07-22T12:32:18;10.38;;;6.95;;
62616;SDS011;48692;51.190;6.808;2022-07-22T12:37:22;10.10;;;6.75;;
62616;SDS011;48692;51.190;6.808;2022-07-22T12:39:53;11.82;;;6.97;;
62616;SDS011;48692;51.190;6.808;2022-07-22T12:42:29;10.35;;;7.15;;
62616;SDS011;48692;51.190;6.808;2022-07-22T12:45:32;15.35;;;9.10;;
62616;SDS011;48692;51.190;6.808;2022-07-22T12:53:00;15.13;;;9.52;;
62616;SDS011;48692;51.190;6.808;2022-07-22T12:55:31;15.82;;;9.32;;
62616;SDS011;48692;51.190;6.808;2022-07-22T12:57:59;18.65;;;9.63;;
62616;SDS011;48692;51.190;6.808;2022-07-22T13:00:26;16.67;;;9.68;;
62616;SDS011;48692;51.190;6.808;2022-07-22T13:02:58;15.70;;;8.93;;
62616;SDS011;48692;51.190;6.808;2022-07-22T13:05:24;13.55;;;8.30;;
62616;SDS011;48692;51.190;6.808;2022-07-22T13:07:50;12.93;;;9.00;;
62616;SDS011;48692;51.190;6.808;2022-07-22T13:10:18;13.25;;;8.63;;
62616;SDS011;48692;51.190;6.808;2022-07-22T13:12:49;14.40;;;8.68;;
62616;SDS011;48692;51.190;6.808;2022-07-22T13:15:15;13.57;;;8.20;;
62616;SDS011;48692;51.190;6.808;2022-07-22T13:17:41;12.70;;;8.73;;
62616;SDS011;48692;51.190;6.808;2022-07-22T13:20:08;12.02;;;8.07;;
62616;SDS011;48692;51.190;6.808;2022-07-22T13:22:35;15.93;;;8.82;;
62616;SDS011;48692;51.190;6.808;2022-07-22T13:25:01;13.88;;;9.27;;
62616;SDS011;48692;51.190;6.808;2022-07-22T13:27:28;9.50;;;7.50;;
62616;SDS011;48692;51.190;6.808;2022-07-22T13:29:54;15.50;;;8.82;;
62616;SDS011;48692;51.190;6.808;2022-07-22T13:32:19;13.18;;;8.27;;
62616;SDS011;48692;51.190;6.808;2022-07-22T13:34:45;11.25;;;8.18;;
62616;SDS011;48692;51.190;6.808;2022-07-22T13:37:10;15.70;;;8.68;;
62616;SDS011;48692;51.190;6.808;2022-07-22T13:39:36;12.68;;;8.75;;
62616;SDS011;48692;51.190;6.808;2022-07-22T13:42:02;11.60;;;8.05;;
62616;SDS011;48692;51.190;6.808;2022-07-22T13:44:28;13.38;;;8.70;;
62616;SDS011;48692;51.190;6.808;2022-07-22T13:46:55;13.95;;;8.38;;
62616;SDS011;48692;51.190;6.808;2022-07-22T13:49:23;16.00;;;8.68;;
62616;SDS011;48692;51.190;6.808;2022-07-22T13:51:48;12.30;;;8.63;;
62616;SDS011;48692;51.190;6.808;2022-07-22T13:54:16;15.05;;;8.70;;
62616;SDS011;48692;51.190;6.808;2022-07-22T13:56:42;16.60;;;8.32;;
62616;SDS011;48692;51.190;6.808;2022-07-22T13:59:09;12.82;;;8.18;;
62616;SDS011;48692;51.190;6.808;2022-07-22T14:01:36;12.98;;;8.20;;
62616;SDS011;48692;51.190;6.808;2022-07-22T14:04:02;11.93;;;8.43;;
62616;SDS011;48692;51.190;6.808;2022-07-22T14:06:29;12.35;;;8.75;;
62616;SDS011;48692;51.190;6.808;2022-07-22T14:08:54;11.13;;;8.15;;
62616;SDS011;48692;51.190;6.808;2022-07-22T14:11:20;17.13;;;8.88;;
62616;SDS011;48692;51.190;6.808;2022-07-22T14:13:46;11.52;;;8.20;;
62616;SDS011;48692;51.190;6.808;2022-07-22T14:16:11;13.02;;;8.50;;
62616;SDS011;48692;51.190;6.808;2022-07-22T14:18:55;12.40;;;8.07;;
62616;SDS011;48692;51.190;6.808;2022-07-22T14:21:20;12.88;;;8.50;;
62616;SDS011;48692;51.190;6.808;2022-07-22T14:23:46;11.50;;;7.75;;
62616;SDS011;48692;51.190;6.808;2022-07-22T14:26:11;12.38;;;8.43;;
62616;SDS011;48692;51.190;6.808;2022-07-22T14:28:37;12.30;;;8.50;;
62616;SDS011;48692;51.190;6.808;2022-07-22T14:31:02;12.35;;;8.55;;
62616;SDS011;48692;51.190;6.808;2022-07-22T14:33:28;15.75;;;8.18;;
62616;SDS011;48692;51.190;6.808;2022-07-22T14:35:53;11.27;;;8.07;;
62616;SDS011;48692;51.190;6.808;2022-07-22T14:38:19;12.50;;;8.00;;
62616;SDS011;48692;51.190;6.808;2022-07-22T14:40:44;11.43;;;8.65;;
62616;SDS011;48692;51.190;6.808;2022-07-22T14:43:10;13.50;;;8.85;;
62616;SDS011;48692;51.190;6.808;2022-07-22T14:45:36;10.88;;;8.32;;
62616;SDS011;48692;51.190;6.808;2022-07-22T14:48:01;11.98;;;8.85;;
62616;SDS011;48692;51.190;6.808;2022-07-22T14:50:26;10.75;;;8.52;;
62616;SDS011;48692;51.190;6.808;2022-07-22T14:52:52;13.98;;;9.02;;
62616;SDS011;48692;51.190;6.808;2022-07-22T14:55:17;11.90;;;9.00;;
62616;SDS011;48692;51.190;6.808;2022-07-22T14:57:43;12.35;;;8.30;;
62616;SDS011;48692;51.190;6.808;2022-07-22T15:00:08;9.95;;;7.97;;
62616;SDS011;48692;51.190;6.808;2022-07-22T15:02:34;11.98;;;8.65;;
62616;SDS011;48692;51.190;6.808;2022-07-22T15:05:00;12.48;;;8.50;;
62616;SDS011;48692;51.190;6.808;2022-07-22T15:07:25;17.05;;;8.27;;
62616;SDS011;48692;51.190;6.808;2022-07-22T15:09:51;14.95;;;8.63;;
62616;SDS011;48692;51.190;6.808;2022-07-22T15:12:16;12.70;;;8.65;;
62616;SDS011;48692;51.190;6.808;2022-07-22T15:14:42;11.40;;;8.27;;
62616;SDS011;48692;51.190;6.808;2022-07-22T15:17:07;14.55;;;8.05;;
62616;SDS011;48692;51.190;6.808;2022-07-22T15:19:33;12.07;;;8.27;;